Wetterdaten: Woche 12.09.16 - 18.09.16 (KW37)
Datum Zeit Temp. A. Temp. A. max Feuchte A. Luftdruck Regen Wind Richtung Sonnenschein ET UV Solar Taupunkt Windben
12.09.2016 00:00 13,0 C 13,0 C 92 % 1016,8 hPa 0,0 mm 0,3 km/h (0 Bft) N 0,00 h 0,000 mm 0,0 UV-I 0 W/m 11,7 C 0,8 km/h (0 Bft)
12.09.2016 01:00 12,6 C 12,6 C 91 % 1016,6 hPa 0,0 mm 0,3 km/h (0 Bft) NW 0,00 h 0,000 mm 0,0 UV-I 0 W/m 11,2 C 0,7 km/h (0 Bft)
12.09.2016 02:00 13,1 C 13,1 C 87 % 1016,3 hPa 0,0 mm 0,9 km/h (0 Bft) NW 0,00 h 0,000 mm 0,0 UV-I 0 W/m 11,0 C 2,2 km/h (1 Bft)
12.09.2016 03:00 12,7 C 12,7 C 87 % 1016,1 hPa 0,0 mm 0,5 km/h (0 Bft) SO 0,00 h 0,000 mm 0,0 UV-I 0 W/m 10,6 C 1,1 km/h (1 Bft)
12.09.2016 04:00 11,7 C 11,8 C 90 % 1015,9 hPa 0,0 mm 0,0 km/h (0 Bft) N 0,00 h 0,000 mm 0,0 UV-I 0 W/m 10,1 C 0,0 km/h (0 Bft)
12.09.2016 05:00 12,1 C 12,2 C 87 % 1015,9 hPa 0,0 mm 0,0 km/h (0 Bft) N 0,00 h 0,000 mm 0,0 UV-I 0 W/m 10,1 C 0,0 km/h (0 Bft)
12.09.2016 06:00 12,3 C 12,3 C 87 % 1016,0 hPa 0,0 mm 0,0 km/h (0 Bft) N 0,00 h 0,000 mm 0,0 UV-I 5 W/m 10,1 C 0,0 km/h (0 Bft)
12.09.2016 07:00 11,4 C 11,4 C 90 % 1016,3 hPa 0,0 mm 0,0 km/h (0 Bft) N 0,00 h 0,000 mm 0,0 UV-I 21 W/m 9,9 C 0,0 km/h (0 Bft)
12.09.2016 08:00 13,8 C 13,8 C 88 % 1016,6 hPa 0,0 mm 0,0 km/h (0 Bft) N 0,48 h 0,000 mm 0,9 UV-I 140 W/m 11,8 C 0,0 km/h (0 Bft)
12.09.2016 09:00 17,5 C 17,5 C 77 % 1017,0 hPa 0,0 mm 0,0 km/h (0 Bft) N 1,00 h 0,076 mm 2,0 UV-I 370 W/m 13,4 C 0,0 km/h (0 Bft)
12.09.2016 10:00 20,0 C 20,0 C 70 % 1017,2 hPa 0,0 mm 0,0 km/h (0 Bft) N 1,00 h 0,203 mm 3,2 UV-I 515 W/m 14,4 C 0,0 km/h (0 Bft)
12.09.2016 11:00 21,9 C 21,9 C 64 % 1017,1 hPa 0,0 mm 0,7 km/h (0 Bft) NO 1,00 h 0,305 mm 4,3 UV-I 624 W/m 14,7 C 1,7 km/h (1 Bft)
12.09.2016 12:00 23,5 C 23,5 C 60 % 1017,0 hPa 0,0 mm 2,1 km/h (1 Bft) NO 1,00 h 0,381 mm 4,9 UV-I 681 W/m 15,2 C 3,6 km/h (1 Bft)
12.09.2016 13:00 24,5 C 24,6 C 59 % 1016,8 hPa 0,0 mm 2,7 km/h (1 Bft) O-NO 1,00 h 0,432 mm 5,0 UV-I 687 W/m 16,0 C 4,7 km/h (1 Bft)
12.09.2016 14:00 25,0 C 25,0 C 56 % 1016,6 hPa 0,0 mm 4,2 km/h (1 Bft) O 1,00 h 0,432 mm 4,5 UV-I 641 W/m 15,6 C 7,0 km/h (2 Bft)
12.09.2016 15:00 25,1 C 25,1 C 54 % 1016,4 hPa 0,0 mm 3,3 km/h (1 Bft) O 1,00 h 0,432 mm 3,3 UV-I 535 W/m 15,1 C 5,8 km/h (2 Bft)
12.09.2016 16:00 24,7 C 24,7 C 54 % 1016,1 hPa 0,0 mm 2,8 km/h (1 Bft) O-SO 0,43 h 0,355 mm 1,9 UV-I 243 W/m 14,7 C 4,6 km/h (1 Bft)
12.09.2016 17:00 23,5 C 23,5 C 57 % 1015,9 hPa 0,0 mm 1,9 km/h (1 Bft) O 0,00 h 0,178 mm 1,1 UV-I 49 W/m 14,3 C 3,6 km/h (1 Bft)
12.09.2016 18:00 22,5 C 22,6 C 61 % 1015,8 hPa 0,0 mm 1,8 km/h (1 Bft) O 0,00 h 0,051 mm 0,0 UV-I 30 W/m 14,6 C 3,0 km/h (1 Bft)
12.09.2016 19:00 19,1 C 19,2 C 75 % 1015,7 hPa 0,0 mm 1,7 km/h (1 Bft) O 0,00 h 0,025 mm 0,0 UV-I 13 W/m 14,5 C 3,0 km/h (1 Bft)
12.09.2016 20:00 17,1 C 17,1 C 81 % 1016,2 hPa 0,0 mm 0,4 km/h (0 Bft) S-SO 0,00 h 0,026 mm 0,0 UV-I 0 W/m 13,7 C 1,0 km/h (0 Bft)
12.09.2016 21:00 16,2 C 16,2 C 83 % 1016,4 hPa 0,0 mm 0,0 km/h (0 Bft) N 0,00 h 0,025 mm 0,0 UV-I 0 W/m 13,2 C 0,0 km/h (0 Bft)
12.09.2016 22:00 15,3 C 15,4 C 84 % 1016,5 hPa 0,0 mm 0,0 km/h (0 Bft) N 0,00 h 0,025 mm 0,0 UV-I 0 W/m 12,6 C 0,0 km/h (0 Bft)
12.09.2016 23:00 15,2 C 15,2 C 83 % 1016,4 hPa 0,0 mm 0,0 km/h (0 Bft) N 0,00 h 0,026 mm 0,0 UV-I 0 W/m 12,3 C 0,0 km/h (0 Bft)
13.09.2016 00:00 14,4 C 14,4 C 85 % 1016,4 hPa 0,0 mm 0,0 km/h (0 Bft) N 0,00 h 0,000 mm 0,0 UV-I 0 W/m 11,9 C 0,0 km/h (0 Bft)
13.09.2016 01:00 13,9 C 13,9 C 86 % 1016,2 hPa 0,0 mm 0,0 km/h (0 Bft) N 0,00 h 0,000 mm 0,0 UV-I 0 W/m 11,6 C 0,0 km/h (0 Bft)
13.09.2016 02:00 13,2 C 13,2 C 89 % 1015,8 hPa 0,0 mm 0,0 km/h (0 Bft) N 0,00 h 0,000 mm 0,0 UV-I 0 W/m 11,4 C 0,0 km/h (0 Bft)
13.09.2016 03:00 12,9 C 12,9 C 90 % 1015,6 hPa 0,0 mm 0,0 km/h (0 Bft) N 0,00 h 0,000 mm 0,0 UV-I 0 W/m 11,2 C 0,0 km/h (0 Bft)
13.09.2016 04:00 12,4 C 12,5 C 91 % 1015,5 hPa 0,0 mm 0,0 km/h (0 Bft) N 0,00 h 0,000 mm 0,0 UV-I 0 W/m 11,0 C 0,0 km/h (0 Bft)
13.09.2016 05:00 11,8 C 11,8 C 92 % 1015,4 hPa 0,0 mm 0,0 km/h (0 Bft) N 0,00 h 0,000 mm 0,0 UV-I 0 W/m 10,6 C 0,0 km/h (0 Bft)
13.09.2016 06:00 11,5 C 11,6 C 92 % 1015,3 hPa 0,0 mm 0,0 km/h (0 Bft) N 0,00 h 0,000 mm 0,0 UV-I 6 W/m 10,3 C 0,0 km/h (0 Bft)
13.09.2016 07:00 11,9 C 11,9 C 91 % 1015,4 hPa 0,0 mm 0,0 km/h (0 Bft) N 0,02 h 0,000 mm 0,0 UV-I 24 W/m 10,4 C 0,0 km/h (0 Bft)
13.09.2016 08:00 14,2 C 14,2 C 87 % 1015,4 hPa 0,0 mm 0,0 km/h (0 Bft) N 0,38 h 0,025 mm 0,8 UV-I 133 W/m 12,0 C 0,0 km/h (0 Bft)
13.09.2016 09:00 17,9 C 17,9 C 78 % 1015,3 hPa 0,0 mm 0,0 km/h (0 Bft) N 1,00 h 0,077 mm 1,9 UV-I 361 W/m 14,0 C 0,0 km/h (0 Bft)
13.09.2016 10:00 20,8 C 20,8 C 68 % 1015,2 hPa 0,0 mm 0,0 km/h (0 Bft) N 1,00 h 0,203 mm 3,2 UV-I 511 W/m 14,8 C 0,0 km/h (0 Bft)
13.09.2016 11:00 22,5 C 22,5 C 65 % 1014,9 hPa 0,0 mm 0,1 km/h (0 Bft) O-NO 1,00 h 0,305 mm 4,2 UV-I 620 W/m 15,7 C 0,1 km/h (0 Bft)
13.09.2016 12:00 23,8 C 23,8 C 59 % 1014,3 hPa 0,0 mm 4,3 km/h (1 Bft) NO 1,00 h 0,381 mm 4,9 UV-I 685 W/m 15,2 C 7,1 km/h (2 Bft)
13.09.2016 13:00 24,5 C 24,6 C 56 % 1013,8 hPa 0,0 mm 5,3 km/h (1 Bft) NO 1,00 h 0,457 mm 5,0 UV-I 693 W/m 15,3 C 8,6 km/h (2 Bft)
13.09.2016 14:00 25,0 C 25,1 C 59 % 1013,3 hPa 0,0 mm 5,2 km/h (1 Bft) NO 1,00 h 0,457 mm 4,5 UV-I 641 W/m 16,3 C 8,7 km/h (2 Bft)
13.09.2016 15:00 25,4 C 25,4 C 58 % 1012,8 hPa 0,0 mm 5,7 km/h (1 Bft) NO 1,00 h 0,432 mm 3,3 UV-I 535 W/m 16,6 C 9,8 km/h (2 Bft)
13.09.2016 16:00 25,2 C 25,3 C 56 % 1012,4 hPa 0,0 mm 5,4 km/h (1 Bft) NO 0,53 h 0,381 mm 2,2 UV-I 256 W/m 15,7 C 9,6 km/h (2 Bft)
13.09.2016 17:00 24,4 C 24,5 C 56 % 1012,1 hPa 0,0 mm 4,6 km/h (1 Bft) NO 0,00 h 0,203 mm 0,0 UV-I 44 W/m 14,9 C 8,0 km/h (2 Bft)
13.09.2016 18:00 22,6 C 22,6 C 68 % 1011,8 hPa 0,0 mm 1,8 km/h (1 Bft) O 0,00 h 0,076 mm 0,0 UV-I 29 W/m 16,4 C 3,5 km/h (1 Bft)
13.09.2016 19:00 20,4 C 20,5 C 77 % 1011,7 hPa 0,0 mm 2,0 km/h (1 Bft) S-SO 0,00 h 0,026 mm 0,0 UV-I 11 W/m 16,2 C 3,5 km/h (1 Bft)
13.09.2016 20:00 18,1 C 18,2 C 85 % 1011,8 hPa 0,0 mm 0,7 km/h (0 Bft) S 0,00 h 0,025 mm 0,0 UV-I 0 W/m 15,5 C 1,4 km/h (1 Bft)
13.09.2016 21:00 16,9 C 16,9 C 88 % 1011,8 hPa 0,0 mm 0,8 km/h (0 Bft) S 0,00 h 0,025 mm 0,0 UV-I 0 W/m 14,9 C 1,3 km/h (1 Bft)
13.09.2016 22:00 15,9 C 16,0 C 89 % 1011,6 hPa 0,0 mm 0,3 km/h (0 Bft) S 0,00 h 0,000 mm 0,0 UV-I 0 W/m 14,1 C 0,5 km/h (0 Bft)
13.09.2016 23:00 14,6 C 14,7 C 91 % 1011,5 hPa 0,0 mm 0,0 km/h (0 Bft) N 0,00 h 0,000 mm 0,0 UV-I 0 W/m 13,2 C 0,0 km/h (0 Bft)
14.09.2016 00:00 13,8 C 13,8 C 93 % 1011,4 hPa 0,0 mm 0,2 km/h (0 Bft) S 0,00 h 0,000 mm 0,0 UV-I 0 W/m 12,6 C 0,3 km/h (0 Bft)
14.09.2016 01:00 13,7 C 13,8 C 92 % 1011,1 hPa 0,0 mm 0,6 km/h (0 Bft) S 0,00 h 0,000 mm 0,0 UV-I 0 W/m 12,5 C 1,4 km/h (1 Bft)
14.09.2016 02:00 13,5 C 13,6 C 92 % 1011,0 hPa 0,0 mm 0,7 km/h (0 Bft) W 0,00 h 0,000 mm 0,0 UV-I 0 W/m 12,2 C 1,5 km/h (1 Bft)
14.09.2016 03:00 12,7 C 12,7 C 91 % 1011,1 hPa 0,0 mm 0,3 km/h (0 Bft) S 0,00 h 0,000 mm 0,0 UV-I 0 W/m 11,3 C 0,9 km/h (0 Bft)
14.09.2016 04:00 12,4 C 12,4 C 90 % 1011,1 hPa 0,0 mm 1,2 km/h (1 Bft) S 0,00 h 0,000 mm 0,0 UV-I 0 W/m 10,8 C 2,2 km/h (1 Bft)
14.09.2016 05:00 12,6 C 12,6 C 87 % 1011,3 hPa 0,0 mm 2,2 km/h (1 Bft) SO 0,00 h 0,000 mm 0,0 UV-I 0 W/m 10,5 C 3,7 km/h (1 Bft)
14.09.2016 06:00 11,6 C 11,6 C 90 % 1011,4 hPa 0,0 mm 0,3 km/h (0 Bft) S-SW 0,00 h 0,000 mm 0,0 UV-I 6 W/m 10,0 C 1,0 km/h (0 Bft)
14.09.2016 07:00 11,9 C 11,9 C 90 % 1011,4 hPa 0,0 mm 0,1 km/h (0 Bft) N 0,00 h 0,000 mm 0,0 UV-I 21 W/m 10,3 C 0,5 km/h (0 Bft)
14.09.2016 08:00 15,0 C 15,0 C 81 % 1011,3 hPa 0,0 mm 0,1 km/h (0 Bft) S-SW 0,38 h 0,000 mm 1,0 UV-I 126 W/m 11,7 C 0,4 km/h (0 Bft)
14.09.2016 09:00 18,2 C 18,2 C 73 % 1011,4 hPa 0,0 mm 0,0 km/h (0 Bft) N 1,00 h 0,076 mm 1,9 UV-I 362 W/m 13,3 C 0,0 km/h (0 Bft)
14.09.2016 10:00 21,6 C 21,6 C 67 % 1011,5 hPa 0,0 mm 2,6 km/h (1 Bft) W-NW 1,00 h 0,203 mm 3,1 UV-I 506 W/m 15,2 C 4,4 km/h (1 Bft)
14.09.2016 11:00 23,4 C 23,4 C 59 % 1011,7 hPa 0,0 mm 4,7 km/h (1 Bft) NW 1,00 h 0,305 mm 4,2 UV-I 615 W/m 14,9 C 7,3 km/h (2 Bft)
14.09.2016 12:00 23,4 C 23,5 C 59 % 1011,8 hPa 0,0 mm 2,9 km/h (1 Bft) N 1,00 h 0,407 mm 4,8 UV-I 676 W/m 14,9 C 4,6 km/h (1 Bft)
14.09.2016 13:00 24,4 C 24,4 C 57 % 1011,6 hPa 0,0 mm 3,3 km/h (1 Bft) W-NW 1,00 h 0,431 mm 4,9 UV-I 680 W/m 15,2 C 5,4 km/h (1 Bft)
14.09.2016 14:00 24,8 C 24,9 C 59 % 1011,1 hPa 0,0 mm 4,4 km/h (1 Bft) O-NO 1,00 h 0,432 mm 4,3 UV-I 625 W/m 16,3 C 7,5 km/h (2 Bft)
14.09.2016 15:00 24,6 C 24,7 C 60 % 1010,7 hPa 0,0 mm 5,3 km/h (1 Bft) NO 1,00 h 0,407 mm 3,2 UV-I 532 W/m 16,3 C 8,7 km/h (2 Bft)
14.09.2016 16:00 24,3 C 24,3 C 55 % 1010,5 hPa 0,0 mm 4,7 km/h (1 Bft) NO 0,48 h 0,355 mm 2,2 UV-I 249 W/m 14,6 C 8,1 km/h (2 Bft)
14.09.2016 17:00 23,6 C 23,6 C 63 % 1010,3 hPa 0,0 mm 4,4 km/h (1 Bft) NO 0,00 h 0,203 mm 1,0 UV-I 47 W/m 16,1 C 7,5 km/h (2 Bft)
14.09.2016 18:00 22,3 C 22,3 C 70 % 1010,3 hPa 0,0 mm 1,4 km/h (1 Bft) O-SO 0,00 h 0,051 mm 0,0 UV-I 30 W/m 16,5 C 2,8 km/h (1 Bft)
14.09.2016 19:00 20,2 C 20,2 C 77 % 1010,4 hPa 0,0 mm 2,2 km/h (1 Bft) S-SO 0,00 h 0,026 mm 0,0 UV-I 11 W/m 16,1 C 3,5 km/h (1 Bft)
14.09.2016 20:00 18,2 C 18,3 C 82 % 1010,6 hPa 0,0 mm 1,6 km/h (1 Bft) SO 0,00 h 0,025 mm 0,0 UV-I 0 W/m 15,0 C 2,7 km/h (1 Bft)
14.09.2016 21:00 16,3 C 16,3 C 87 % 1010,6 hPa 0,0 mm 0,0 km/h (0 Bft) N 0,00 h 0,025 mm 0,0 UV-I 0 W/m 14,1 C 0,0 km/h (0 Bft)
14.09.2016 22:00 15,3 C 15,3 C 90 % 1010,3 hPa 0,0 mm 0,0 km/h (0 Bft) N 0,00 h 0,000 mm 0,0 UV-I 0 W/m 13,6 C 0,0 km/h (0 Bft)
14.09.2016 23:00 14,6 C 14,7 C 91 % 1010,1 hPa 0,0 mm 0,3 km/h (0 Bft) W 0,00 h 0,000 mm 0,0 UV-I 0 W/m 13,1 C 0,8 km/h (0 Bft)
15.09.2016 00:00 13,8 C 13,8 C 93 % 1009,7 hPa 0,0 mm 0,8 km/h (0 Bft) SW 0,00 h 0,000 mm 0,0 UV-I 0 W/m 12,6 C 1,6 km/h (1 Bft)
15.09.2016 01:00 12,7 C 12,8 C 94 % 1009,3 hPa 0,0 mm 0,7 km/h (0 Bft) SW 0,00 h 0,000 mm 0,0 UV-I 0 W/m 11,8 C 1,4 km/h (1 Bft)
15.09.2016 02:00 12,4 C 12,5 C 94 % 1009,0 hPa 0,0 mm 0,8 km/h (0 Bft) S 0,00 h 0,000 mm 0,0 UV-I 0 W/m 11,5 C 1,5 km/h (1 Bft)
15.09.2016 03:00 12,2 C 12,3 C 92 % 1008,5 hPa 0,0 mm 0,4 km/h (0 Bft) S 0,00 h 0,000 mm 0,0 UV-I 0 W/m 11,0 C 1,0 km/h (0 Bft)
15.09.2016 04:00 13,7 C 13,8 C 81 % 1008,1 hPa 0,0 mm 1,5 km/h (1 Bft) SO 0,00 h 0,000 mm 0,0 UV-I 0 W/m 10,4 C 2,2 km/h (1 Bft)
15.09.2016 05:00 14,2 C 14,3 C 76 % 1007,9 hPa 0,0 mm 1,1 km/h (0 Bft) O-NO 0,00 h 0,025 mm 0,0 UV-I 0 W/m 10,0 C 2,2 km/h (1 Bft)
15.09.2016 06:00 12,3 C 12,3 C 82 % 1008,0 hPa 0,0 mm 0,8 km/h (0 Bft) NW 0,00 h 0,026 mm 0,0 UV-I 5 W/m 9,4 C 1,7 km/h (1 Bft)
15.09.2016 07:00 14,6 C 14,7 C 73 % 1008,1 hPa 0,0 mm 1,2 km/h (1 Bft) NW 0,00 h 0,000 mm 0,0 UV-I 18 W/m 9,8 C 2,8 km/h (1 Bft)
15.09.2016 08:00 16,7 C 16,7 C 66 % 1008,0 hPa 0,0 mm 1,1 km/h (1 Bft) NO 0,42 h 0,025 mm 1,1 UV-I 130 W/m 10,4 C 2,4 km/h (1 Bft)
15.09.2016 09:00 19,6 C 19,6 C 58 % 1008,0 hPa 0,0 mm 1,2 km/h (1 Bft) W-SW 1,00 h 0,076 mm 2,0 UV-I 361 W/m 11,2 C 2,6 km/h (1 Bft)
15.09.2016 10:00 22,0 C 22,0 C 52 % 1008,2 hPa 0,0 mm 1,5 km/h (1 Bft) SO 1,00 h 0,229 mm 3,1 UV-I 498 W/m 11,6 C 3,0 km/h (1 Bft)
15.09.2016 11:00 24,1 C 24,1 C 47 % 1008,4 hPa 0,0 mm 2,3 km/h (1 Bft) SO 1,00 h 0,305 mm 4,0 UV-I 581 W/m 12,0 C 4,3 km/h (1 Bft)
15.09.2016 12:00 25,6 C 25,6 C 44 % 1008,4 hPa 0,0 mm 4,0 km/h (1 Bft) NW 0,63 h 0,381 mm 3,8 UV-I 488 W/m 12,3 C 6,3 km/h (2 Bft)
15.09.2016 13:00 25,2 C 25,2 C 50 % 1008,6 hPa 0,0 mm 3,2 km/h (1 Bft) NW 0,68 h 0,355 mm 3,8 UV-I 486 W/m 14,0 C 5,3 km/h (1 Bft)
15.09.2016 14:00 24,4 C 24,5 C 50 % 1008,7 hPa 0,0 mm 6,1 km/h (2 Bft) W-NW 0,15 h 0,331 mm 2,6 UV-I 266 W/m 13,1 C 9,8 km/h (2 Bft)
15.09.2016 15:00 21,1 C 21,1 C 68 % 1009,4 hPa 0,0 mm 4,8 km/h (1 Bft) W 0,00 h 0,228 mm 1,0 UV-I 131 W/m 14,9 C 7,8 km/h (2 Bft)
15.09.2016 16:00 21,3 C 21,4 C 68 % 1009,6 hPa 0,0 mm 4,0 km/h (1 Bft) W-NW 0,30 h 0,102 mm 1,7 UV-I 221 W/m 15,1 C 6,6 km/h (2 Bft)
15.09.2016 17:00 21,0 C 21,1 C 66 % 1009,1 hPa 0,0 mm 1,5 km/h (1 Bft) W-SW 0,00 h 0,152 mm 0,9 UV-I 107 W/m 14,5 C 2,8 km/h (1 Bft)
15.09.2016 18:00 19,6 C 19,6 C 70 % 1009,4 hPa 0,0 mm 0,8 km/h (0 Bft) NW 0,00 h 0,076 mm 0,6 UV-I 35 W/m 14,0 C 1,9 km/h (1 Bft)
15.09.2016 19:00 17,2 C 17,2 C 77 % 1009,9 hPa 0,0 mm 0,8 km/h (0 Bft) SW 0,00 h 0,026 mm 0,0 UV-I 7 W/m 13,1 C 1,8 km/h (1 Bft)
15.09.2016 20:00 15,2 C 15,2 C 83 % 1010,3 hPa 0,0 mm 1,6 km/h (1 Bft) S 0,00 h 0,000 mm 0,0 UV-I 0 W/m 12,4 C 2,7 km/h (1 Bft)
15.09.2016 21:00 14,7 C 14,8 C 86 % 1010,7 hPa 0,0 mm 2,3 km/h (1 Bft) S 0,00 h 0,025 mm 0,0 UV-I 0 W/m 12,3 C 3,7 km/h (1 Bft)
15.09.2016 22:00 14,0 C 14,0 C 87 % 1011,1 hPa 0,0 mm 1,5 km/h (1 Bft) S 0,00 h 0,026 mm 0,0 UV-I 0 W/m 11,9 C 2,7 km/h (1 Bft)
15.09.2016 23:00 13,2 C 13,2 C 89 % 1011,7 hPa 0,0 mm 1,7 km/h (1 Bft) S 0,00 h 0,000 mm 0,0 UV-I 0 W/m 11,5 C 3,0 km/h (1 Bft)
16.09.2016 00:00 15,4 C 15,4 C 87 % 1012,1 hPa 0,0 mm 4,0 km/h (1 Bft) W-SW 0,00 h 0,000 mm 0,0 UV-I 0 W/m 13,2 C 7,1 km/h (2 Bft)
16.09.2016 01:00 14,4 C 14,4 C 89 % 1012,4 hPa 0,0 mm 1,7 km/h (1 Bft) S 0,00 h 0,025 mm 0,0 UV-I 0 W/m 12,6 C 3,1 km/h (1 Bft)
16.09.2016 02:00 13,5 C 13,5 C 92 % 1012,7 hPa 0,0 mm 0,5 km/h (0 Bft) S-SW 0,00 h 0,000 mm 0,0 UV-I 0 W/m 12,2 C 1,1 km/h (0 Bft)
16.09.2016 03:00 13,9 C 13,9 C 92 % 1012,8 hPa 0,0 mm 0,0 km/h (0 Bft) N 0,00 h 0,000 mm 0,0 UV-I 0 W/m 12,7 C 0,0 km/h (0 Bft)
16.09.2016 04:00 14,1 C 14,1 C 93 % 1012,8 hPa 0,0 mm 0,0 km/h (0 Bft) N 0,00 h 0,000 mm 0,0 UV-I 0 W/m 12,9 C 0,0 km/h (0 Bft)
16.09.2016 05:00 13,5 C 13,6 C 93 % 1012,7 hPa 0,0 mm 0,1 km/h (0 Bft) S-SW 0,00 h 0,000 mm 0,0 UV-I 0 W/m 12,4 C 0,3 km/h (0 Bft)
16.09.2016 06:00 13,6 C 13,6 C 93 % 1012,5 hPa 0,0 mm 0,0 km/h (0 Bft) N 0,00 h 0,000 mm 0,0 UV-I 10 W/m 12,5 C 0,0 km/h (0 Bft)
16.09.2016 07:00 13,7 C 13,7 C 93 % 1012,7 hPa 0,0 mm 0,1 km/h (0 Bft) W-SW 0,48 h 0,000 mm 0,0 UV-I 45 W/m 12,5 C 0,3 km/h (0 Bft)
16.09.2016 08:00 13,9 C 13,9 C 93 % 1012,9 hPa 0,0 mm 0,2 km/h (0 Bft) W-SW 0,00 h 0,026 mm 0,6 UV-I 60 W/m 12,7 C 0,3 km/h (0 Bft)
16.09.2016 09:00 14,5 C 14,5 C 91 % 1012,6 hPa 0,0 mm 0,3 km/h (0 Bft) W-SW 0,05 h 0,025 mm 1,1 UV-I 126 W/m 13,0 C 0,8 km/h (0 Bft)
16.09.2016 10:00 15,9 C 15,9 C 88 % 1012,5 hPa 0,0 mm 1,8 km/h (1 Bft) O-NO 0,52 h 0,076 mm 2,5 UV-I 342 W/m 13,8 C 3,1 km/h (1 Bft)
16.09.2016 11:00 17,9 C 17,9 C 78 % 1011,9 hPa 0,0 mm 3,7 km/h (1 Bft) O-NO 0,72 h 0,178 mm 3,6 UV-I 476 W/m 14,0 C 6,2 km/h (2 Bft)
16.09.2016 12:00 18,7 C 18,8 C 73 % 1011,5 hPa 0,0 mm 4,9 km/h (1 Bft) O-NO 0,73 h 0,280 mm 3,8 UV-I 478 W/m 13,8 C 7,7 km/h (2 Bft)
16.09.2016 13:00 19,2 C 19,3 C 68 % 1011,3 hPa 0,0 mm 4,6 km/h (1 Bft) NO 0,47 h 0,279 mm 3,2 UV-I 386 W/m 13,2 C 7,4 km/h (2 Bft)
16.09.2016 14:00 18,8 C 18,8 C 73 % 1011,0 hPa 0,0 mm 2,2 km/h (1 Bft) O-NO 0,00 h 0,229 mm 1,3 UV-I 150 W/m 13,8 C 4,0 km/h (1 Bft)
16.09.2016 15:00 18,0 C 18,0 C 78 % 1011,0 hPa 0,0 mm 5,4 km/h (1 Bft) NW 0,00 h 0,101 mm 0,8 UV-I 86 W/m 14,0 C 8,1 km/h (2 Bft)
16.09.2016 16:00 15,0 C 15,1 C 86 % 1011,3 hPa 0,0 mm 5,5 km/h (1 Bft) W-SW 0,00 h 0,076 mm 0,6 UV-I 72 W/m 12,7 C 8,9 km/h (2 Bft)
16.09.2016 17:00 14,9 C 15,0 C 84 % 1010,9 hPa 0,0 mm 4,7 km/h (1 Bft) W-SW 0,00 h 0,051 mm 0,5 UV-I 51 W/m 12,2 C 8,1 km/h (2 Bft)
16.09.2016 18:00 13,7 C 13,8 C 88 % 1011,2 hPa 5,4 mm 2,6 km/h (1 Bft) W-SW 0,00 h 0,026 mm 0,0 UV-I 6 W/m 11,8 C 4,6 km/h (1 Bft)
16.09.2016 19:00 12,8 C 12,8 C 94 % 1011,4 hPa 0,8 mm 1,7 km/h (1 Bft) W-SW 0,00 h 0,000 mm 0,0 UV-I 10 W/m 11,8 C 3,2 km/h (1 Bft)
16.09.2016 20:00 12,6 C 12,6 C 94 % 1011,7 hPa 2,8 mm 2,3 km/h (1 Bft) W-SW 0,00 h 0,000 mm 0,0 UV-I 0 W/m 11,6 C 3,8 km/h (1 Bft)
16.09.2016 21:00 12,6 C 12,6 C 94 % 1011,7 hPa 1,6 mm 2,5 km/h (1 Bft) S 0,00 h 0,000 mm 0,0 UV-I 0 W/m 11,7 C 4,6 km/h (1 Bft)
16.09.2016 22:00 12,6 C 12,7 C 94 % 1011,8 hPa 2,8 mm 2,7 km/h (1 Bft) W-NW 0,00 h 0,000 mm 0,0 UV-I 0 W/m 11,7 C 4,8 km/h (1 Bft)
16.09.2016 23:00 11,7 C 11,7 C 93 % 1012,2 hPa 3,0 mm 6,1 km/h (2 Bft) W-SW 0,00 h 0,000 mm 0,0 UV-I 0 W/m 10,6 C 10,1 km/h (2 Bft)
17.09.2016 00:00 11,5 C 11,5 C 94 % 1012,3 hPa 0,6 mm 5,6 km/h (1 Bft) W-SW 0,00 h 0,000 mm 0,0 UV-I 0 W/m 10,5 C 9,7 km/h (2 Bft)
17.09.2016 01:00 11,6 C 11,6 C 94 % 1012,2 hPa 0,6 mm 8,1 km/h (2 Bft) W 0,00 h 0,000 mm 0,0 UV-I 0 W/m 10,7 C 13,5 km/h (3 Bft)
17.09.2016 02:00 11,4 C 11,4 C 93 % 1012,1 hPa 0,6 mm 4,8 km/h (1 Bft) W-SW 0,00 h 0,000 mm 0,0 UV-I 0 W/m 10,4 C 8,3 km/h (2 Bft)
17.09.2016 03:00 11,0 C 11,0 C 93 % 1012,3 hPa 0,8 mm 2,4 km/h (1 Bft) SW 0,00 h 0,000 mm 0,0 UV-I 0 W/m 9,9 C 4,4 km/h (1 Bft)
17.09.2016 04:00 10,8 C 10,8 C 93 % 1012,2 hPa 1,4 mm 3,0 km/h (1 Bft) SW 0,00 h 0,000 mm 0,0 UV-I 0 W/m 9,8 C 5,4 km/h (1 Bft)
17.09.2016 05:00 10,8 C 10,8 C 93 % 1012,2 hPa 1,2 mm 3,4 km/h (1 Bft) W-SW 0,00 h 0,000 mm 0,0 UV-I 0 W/m 9,6 C 6,2 km/h (2 Bft)
17.09.2016 06:00 10,6 C 10,6 C 94 % 1012,4 hPa 0,4 mm 3,1 km/h (1 Bft) SW 0,00 h 0,000 mm 0,0 UV-I 0 W/m 9,7 C 5,9 km/h (2 Bft)
17.09.2016 07:00 10,7 C 10,7 C 94 % 1012,8 hPa 3,2 mm 2,9 km/h (1 Bft) W 0,00 h 0,000 mm 0,0 UV-I 6 W/m 9,8 C 5,1 km/h (1 Bft)
17.09.2016 08:00 10,8 C 10,8 C 95 % 1012,9 hPa 1,8 mm 1,2 km/h (1 Bft) S-SW 0,00 h 0,000 mm 0,0 UV-I 18 W/m 10,0 C 2,5 km/h (1 Bft)
17.09.2016 09:00 11,1 C 11,1 C 94 % 1012,9 hPa 1,0 mm 2,1 km/h (1 Bft) SW 0,00 h 0,000 mm 0,5 UV-I 43 W/m 10,2 C 4,3 km/h (1 Bft)
17.09.2016 10:00 11,7 C 11,7 C 94 % 1013,0 hPa 0,6 mm 5,3 km/h (1 Bft) W-SW 0,00 h 0,025 mm 0,9 UV-I 109 W/m 10,7 C 9,3 km/h (2 Bft)
17.09.2016 11:00 12,0 C 12,0 C 92 % 1013,0 hPa 0,0 mm 6,5 km/h (2 Bft) W 0,00 h 0,051 mm 1,1 UV-I 136 W/m 10,8 C 11,1 km/h (2 Bft)
17.09.2016 12:00 12,4 C 12,5 C 91 % 1013,0 hPa 0,0 mm 7,3 km/h (2 Bft) W 0,00 h 0,076 mm 1,3 UV-I 162 W/m 11,0 C 12,6 km/h (3 Bft)
17.09.2016 13:00 12,9 C 12,9 C 91 % 1013,1 hPa 0,0 mm 5,4 km/h (1 Bft) W 0,00 h 0,077 mm 1,3 UV-I 166 W/m 11,4 C 9,3 km/h (2 Bft)
17.09.2016 14:00 13,3 C 13,3 C 90 % 1013,0 hPa 0,0 mm 4,8 km/h (1 Bft) W-SW 0,00 h 0,076 mm 1,2 UV-I 156 W/m 11,8 C 7,8 km/h (2 Bft)
17.09.2016 15:00 13,4 C 13,4 C 90 % 1013,0 hPa 0,0 mm 1,5 km/h (1 Bft) W 0,00 h 0,076 mm 0,9 UV-I 117 W/m 11,8 C 2,9 km/h (1 Bft)
17.09.2016 16:00 12,8 C 12,9 C 92 % 1012,9 hPa 0,0 mm 0,6 km/h (0 Bft) S-SW 0,00 h 0,051 mm 0,5 UV-I 60 W/m 11,6 C 1,4 km/h (1 Bft)
17.09.2016 17:00 12,5 C 12,5 C 94 % 1013,0 hPa 0,2 mm 0,0 km/h (0 Bft) N 0,00 h 0,025 mm 0,0 UV-I 34 W/m 11,5 C 0,0 km/h (0 Bft)
17.09.2016 18:00 12,3 C 12,3 C 95 % 1012,9 hPa 0,4 mm 0,2 km/h (0 Bft) S-SW 0,00 h 0,026 mm 0,0 UV-I 15 W/m 11,5 C 0,4 km/h (0 Bft)
17.09.2016 19:00 12,0 C 12,1 C 95 % 1012,9 hPa 0,6 mm 0,7 km/h (0 Bft) S 0,00 h 0,000 mm 0,0 UV-I 0 W/m 11,3 C 1,8 km/h (1 Bft)
17.09.2016 20:00 11,8 C 11,8 C 94 % 1013,5 hPa 0,6 mm 3,0 km/h (1 Bft) W-SW 0,00 h 0,000 mm 0,0 UV-I 0 W/m 10,9 C 4,9 km/h (1 Bft)
17.09.2016 21:00 11,4 C 11,5 C 93 % 1013,8 hPa 0,2 mm 2,7 km/h (1 Bft) W-SW 0,00 h 0,000 mm 0,0 UV-I 0 W/m 10,4 C 5,2 km/h (1 Bft)
17.09.2016 22:00 11,0 C 11,0 C 94 % 1013,5 hPa 0,4 mm 1,9 km/h (1 Bft) S-SW 0,00 h 0,000 mm 0,0 UV-I 0 W/m 10,1 C 3,5 km/h (1 Bft)
17.09.2016 23:00 11,0 C 11,0 C 95 % 1013,1 hPa 0,0 mm 0,9 km/h (0 Bft) W-SW 0,00 h 0,000 mm 0,0 UV-I 0 W/m 10,2 C 2,2 km/h (1 Bft)
18.09.2016 00:00 11,1 C 11,1 C 94 % 1012,9 hPa 0,0 mm 1,8 km/h (1 Bft) S 0,00 h 0,000 mm 0,0 UV-I 0 W/m 10,2 C 3,3 km/h (1 Bft)
18.09.2016 01:00 11,2 C 11,2 C 94 % 1012,6 hPa 0,0 mm 0,9 km/h (0 Bft) W-SW 0,00 h 0,000 mm 0,0 UV-I 0 W/m 10,3 C 2,2 km/h (1 Bft)
18.09.2016 02:00 11,3 C 11,3 C 94 % 1012,3 hPa 0,0 mm 4,8 km/h (1 Bft) W-SW 0,00 h 0,000 mm 0,0 UV-I 0 W/m 10,4 C 8,1 km/h (2 Bft)
18.09.2016 03:00 11,5 C 11,5 C 92 % 1011,7 hPa 0,2 mm 2,8 km/h (1 Bft) W-SW 0,00 h 0,000 mm 0,0 UV-I 0 W/m 10,3 C 5,6 km/h (1 Bft)
18.09.2016 04:00 11,4 C 11,4 C 91 % 1011,3 hPa 0,0 mm 2,0 km/h (1 Bft) W-SW 0,00 h 0,000 mm 0,0 UV-I 0 W/m 10,0 C 4,0 km/h (1 Bft)
18.09.2016 05:00 10,9 C 11,0 C 93 % 1011,0 hPa 0,0 mm 1,1 km/h (1 Bft) S 0,00 h 0,000 mm 0,0 UV-I 0 W/m 9,9 C 2,4 km/h (1 Bft)
18.09.2016 06:00 10,6 C 10,6 C 95 % 1010,7 hPa 0,0 mm 0,3 km/h (0 Bft) SW 0,00 h 0,000 mm 0,0 UV-I 0 W/m 9,9 C 0,7 km/h (0 Bft)
18.09.2016 07:00 10,9 C 10,9 C 95 % 1010,8 hPa 0,0 mm 1,3 km/h (1 Bft) S-SW 0,00 h 0,000 mm 0,0 UV-I 15 W/m 10,0 C 2,4 km/h (1 Bft)
18.09.2016 08:00 11,5 C 11,5 C 93 % 1010,6 hPa 0,0 mm 3,7 km/h (1 Bft) W-SW 0,00 h 0,000 mm 0,0 UV-I 30 W/m 10,3 C 6,5 km/h (2 Bft)
18.09.2016 09:00 11,9 C 11,9 C 92 % 1010,8 hPa 0,0 mm 4,3 km/h (1 Bft) W-SW 0,00 h 0,025 mm 0,6 UV-I 71 W/m 10,7 C 7,2 km/h (2 Bft)
18.09.2016 10:00 12,7 C 12,7 C 91 % 1010,8 hPa 0,0 mm 4,3 km/h (1 Bft) W 0,00 h 0,051 mm 0,8 UV-I 116 W/m 11,3 C 7,0 km/h (2 Bft)
18.09.2016 11:00 12,8 C 12,8 C 92 % 1010,7 hPa 0,2 mm 4,7 km/h (1 Bft) W 0,00 h 0,051 mm 1,1 UV-I 131 W/m 11,5 C 7,6 km/h (2 Bft)
18.09.2016 12:00 12,9 C 13,0 C 91 % 1010,8 hPa 0,0 mm 5,7 km/h (1 Bft) W 0,00 h 0,076 mm 1,2 UV-I 140 W/m 11,5 C 9,5 km/h (2 Bft)
18.09.2016 13:00 12,9 C 12,9 C 90 % 1010,8 hPa 0,2 mm 6,2 km/h (2 Bft) W 0,00 h 0,076 mm 1,3 UV-I 152 W/m 11,4 C 10,0 km/h (2 Bft)
18.09.2016 14:00 12,6 C 12,6 C 91 % 1010,7 hPa 0,2 mm 8,0 km/h (2 Bft) W-SW 0,00 h 0,077 mm 1,3 UV-I 151 W/m 11,2 C 13,1 km/h (3 Bft)
18.09.2016 15:00 12,8 C 12,8 C 91 % 1010,7 hPa 0,2 mm 8,4 km/h (2 Bft) W 0,00 h 0,076 mm 1,2 UV-I 157 W/m 11,3 C 14,0 km/h (3 Bft)
18.09.2016 16:00 13,1 C 13,1 C 90 % 1010,7 hPa 0,0 mm 8,3 km/h (2 Bft) W-SW 0,00 h 0,076 mm 0,9 UV-I 124 W/m 11,4 C 13,7 km/h (3 Bft)
18.09.2016 17:00 12,9 C 12,9 C 89 % 1010,7 hPa 0,0 mm 8,1 km/h (2 Bft) W-SW 0,00 h 0,076 mm 0,6 UV-I 91 W/m 11,2 C 13,1 km/h (3 Bft)
18.09.2016 18:00 12,1 C 12,2 C 91 % 1010,7 hPa 0,0 mm 7,5 km/h (2 Bft) W-SW 0,00 h 0,051 mm 0,5 UV-I 29 W/m 10,7 C 13,0 km/h (3 Bft)
18.09.2016 19:00 11,5 C 11,5 C 92 % 1011,0 hPa 0,8 mm 3,7 km/h (1 Bft) W-SW 0,00 h 0,025 mm 0,0 UV-I 5 W/m 10,3 C 6,7 km/h (2 Bft)
18.09.2016 20:00 11,3 C 11,3 C 94 % 1011,3 hPa 2,2 mm 4,8 km/h (1 Bft) SW 0,00 h 0,000 mm 0,0 UV-I 0 W/m 10,3 C 8,7 km/h (2 Bft)
18.09.2016 21:00 11,1 C 11,1 C 95 % 1011,7 hPa 2,0 mm 2,4 km/h (1 Bft) S-SW 0,00 h 0,000 mm 0,0 UV-I 0 W/m 10,3 C 4,8 km/h (1 Bft)
18.09.2016 22:00 11,1 C 11,1 C 94 % 1011,7 hPa 1,6 mm 1,9 km/h (1 Bft) SW 0,00 h 0,000 mm 0,0 UV-I 0 W/m 10,2 C 3,7 km/h (1 Bft)
18.09.2016 23:00 11,0 C 11,0 C 95 % 1011,5 hPa 1,2 mm 1,4 km/h (1 Bft) SW 0,00 h 0,000 mm 0,0 UV-I 0 W/m 10,2 C 2,9 km/h (1 Bft)
Min-Datum _ 18.09.16 18.09.16 15.09.16 15.09.16 - 18.09.16 - - - - - 15.09.16 18.09.16
_ Min-Zeit 06:02 07:00 14:17 08:32 - 23:42 - - - - - 07:12 23:42
Minimum _ 10,5 C 10,6 C 37 % 1007,8 hPa - 0,0 km/h (0 Bft) - - - - - 8,9 C 0,0 km/h (0 Bft)
Max-Datum _ 15.09.16 15.09.16 18.09.16 12.09.16 16.09.16 18.09.16 - 12.09.16 13.09.16 15.09.16 15.09.16 14.09.16 18.09.16
_ Max-Zeit 12:08 12:08 23:47 10:33 18:25 16:41 - 15:09 14:00 13:40 13:40 15:12 16:19
Maximum _ 26,3 C 26,3 C 96 % 1017,3 hPa 5,4 mm 16,2 km/h
W-SW (3 Bft)
- 0,03 h 0,457 mm 5,3 UV-I 784 W/m 18,3 C 25,7 km/h
W-SW (4 Bft)
Durchschnitt _ 15,7 C 15,7 C 82 % 1012,4 hPa #39,8 mm 2,3 km/h (1 Bft) W-SW #31:52 h #13,894 mm 2,2 UV-I 128 W/m 12,3 C 4,0 km/h (1 Bft)